Virtual United States Air Force

 FLIGHT DETAILS
Pilot: A4001 Don Price Aircraft: C172SP G1000 PASSENGERS Distance: 30NM
Departure KDLF Arrival KDLF Duration 00:17
Validation Validated Type Charter Tail Number N5125F
ZFW 1910 Block Fuel/Initial FOB 0/0 Flight Fuel 3
Passengers 0 Cargo 0 Alternate
Departure Time Cruise Speed Flight Level
Flight Type IFR Aircraft Type C172 Weight Unit Lbs
Date August-30-2026 Pilot Comments A4075 Danny Lugo Checkride IFS-100 Network PRIVATE NETWORK
Crashed No Validator Comments Flight Rating 100

 ROUTE
ROUTE PATTERN
REMARKS A4075 DANNY LUGO IFS-100 CHECKRIDE
 FLIGHT FAILURES
Crashed OK Beacon off & Engine Running OK KIAS Above 250 below 10000 FT OK
Lights OFF below 10000 FT OK Lights ON above 10000 FT OK Stall Fail
Overspeed OK Flight paused OK Refueling Fail
Slew detected OK Taxi & Taxi lights off Fail Take off & lights off OK
Landing & lights off OK Landed in not planned airport OK Taxi Speed Fail
Wrong altimeter in Take off OK Wrong altimeter in Landing OK
 LANDING ANALYSIS
Landing wind 119º/0 kt Landing heading 25
Landing VS: -389.09 ft/min Landing IAS: 65.59 kt
Landing Force G 1.6 G Landing Bank 0.7
Landing Pitch 4.7 Landing Flaps 3
Navigation Lights ON Landing Lights ON
Beacon Lights ON Strobe Lights ON
 FLIGHT MAP
 ALTITUDE CHART
 FLIGHT FINANCIAL REPORT
 MAIN EVENTS
DATE EVENTIASALTITUDE
2026-08-30 11:57:01 SIM ACARS version 1.4.101081
2026-08-30 11:57:01 BOARDING01081
2026-08-30 11:57:01 STARTING ENGINE 1 01081
2026-08-30 11:57:01 FLAPS SET TO POSITION 101081
2026-08-30 12:07:49 FLAPS SET TO POSITION 001081
2026-08-30 12:08:01 REFUELING -11.26%01081
2026-08-30 12:08:09 TAXI TO THE RWY 41081
2026-08-30 12:08:09 TAXING WITH TAXI LIGHTS OFF41081
2026-08-30 12:08:21 REFUELING -19.76%441083
2026-08-30 12:08:21 ROLLING FOR TAKE OFF451083
2026-08-30 12:08:40 TAKE OFF891085
2026-08-30 12:08:41 REFUELING 26.29%921087
2026-08-30 12:09:01 REFUELING -16.99%961217
2026-08-30 12:09:21 REFUELING -19.79%911482
2026-08-30 12:09:41 REFUELING 31.61%911804
2026-08-30 12:10:01 REFUELING -19.79%852050
2026-08-30 12:10:21 REFUELING 28.52%982064
2026-08-30 12:10:41 REFUELING -16.98%942137
2026-08-30 12:11:01 REFUELING 4.14%972235
2026-08-30 12:11:21 REFUELING -16.98%942371
2026-08-30 12:11:41 REFUELING 28.09%982550
2026-08-30 12:12:01 REFUELING -19.79%1242387
2026-08-30 12:12:20 DESCEND1342274
2026-08-30 12:12:21 REFUELING 19.56%1342268
2026-08-30 12:12:41 REFUELING -19.76%1252239
2026-08-30 12:13:01 REFUELING -16.92%1172105
2026-08-30 12:13:21 REFUELING 27.75%1132021
2026-08-30 12:13:30 CRUISE1112060
2026-08-30 12:13:41 REFUELING -18.86%1081990
2026-08-30 12:14:01 REFUELING 29.57%1171731
2026-08-30 12:14:21 REFUELING -19.74%971739
2026-08-30 12:14:35 FLAPS SET TO POSITION 1971576
2026-08-30 12:14:41 REFUELING -16.92%841636
2026-08-30 12:15:01 REFUELING 31.64%901514
2026-08-30 12:15:20 DESCEND901397
2026-08-30 12:15:21 REFUELING -5.63%911377
2026-08-30 12:15:48 LANDING921083
2026-08-30 12:16:01 REFUELING -2.82%541085
2026-08-30 12:16:09 TAXI TO THE GATE201085
2026-08-30 12:16:15 TAXI SPEED ABOVE 25 KTS211084
2026-08-30 12:16:21 REFUELING -16.66%341082
2026-08-30 12:16:41 REFUELING 30.03%331081
2026-08-30 12:17:01 REFUELING -19.04%61085
2026-08-30 12:17:21 REFUELING 8.42%01084
2026-08-30 12:17:41 REFUELING -19.26%01085
2026-08-30 12:18:01 REFUELING 19.24%01083
2026-08-30 12:18:21 REFUELING -5.63%01082
2026-08-30 12:18:41 REFUELING 8.41%01081
2026-08-30 12:19:01 REFUELING -19.67%31084
2026-08-30 12:19:21 REFUELING 19.65%61084
2026-08-30 12:19:41 REFUELING -19.26%01082
2026-08-30 12:20:01 REFUELING 16.43%01082
2026-08-30 12:20:21 REFUELING -16.86%01081
2026-08-30 12:20:41 REFUELING 16.82%01080
2026-08-30 12:21:01 REFUELING -16.77%01080
2026-08-30 12:21:21 REFUELING -13.72%01080
2026-08-30 12:21:41 REFUELING 23.95%331082
2026-08-30 12:22:01 REFUELING -16.99%841085
2026-08-30 12:22:12 TAKE OFF911128
2026-08-30 12:22:21 REFUELING 26.87%901245
2026-08-30 12:22:41 REFUELING -19.80%861496
2026-08-30 12:23:01 REFUELING 26.59%771746
2026-08-30 12:23:21 REFUELING -16.99%801996
2026-08-30 12:23:38 STALL732171
2026-08-30 12:23:38 RECOVER FROM STALL732171
2026-08-30 12:23:38 STALL722170
2026-08-30 12:23:39 RECOVER FROM STALL722169
2026-08-30 12:23:41 REFUELING -16.99%732156
2026-08-30 12:24:01 REFUELING 20.04%832294
2026-08-30 12:24:21 REFUELING -16.99%802390
2026-08-30 12:24:41 REFUELING 26.03%942514
2026-08-30 12:24:50 CRUISE992537
2026-08-30 12:25:01 REFUELING -19.80%1002624
2026-08-30 12:25:21 REFUELING -16.31%1102652
2026-08-30 12:25:41 REFUELING 25.08%1052653
2026-08-30 12:26:01 REFUELING -19.74%1032545
2026-08-30 12:26:10 DESCEND982525
2026-08-30 12:26:21 REFUELING 28.44%1082497
2026-08-30 12:26:34 STALL902468
2026-08-30 12:26:34 RECOVER FROM STALL902466
2026-08-30 12:26:41 REFUELING -19.72%992314
2026-08-30 12:27:01 REFUELING 25.53%1261662
2026-08-30 12:27:21 REFUELING -16.86%1171224
2026-08-30 12:27:30 CRUISE1041117
2026-08-30 12:27:39 LANDING881086
2026-08-30 12:27:41 STALL741092
2026-08-30 12:27:41 REFUELING 9.19%741093
2026-08-30 12:27:41 RECOVER FROM STALL741095
2026-08-30 12:27:44 STALL711094
2026-08-30 12:27:45 RECOVER FROM STALL711091
2026-08-30 12:27:47 FLAPS SET TO POSITION 0561085
2026-08-30 12:27:54 TAXI TO THE GATE201085
2026-08-30 12:28:01 REFUELING 5.61%01084
2026-08-30 12:28:21 REFUELING -16.89%91082
2026-08-30 12:28:41 REFUELING -16.88%21081
2026-08-30 12:29:01 REFUELING 25.46%01082
2026-08-30 12:29:21 REFUELING -16.88%01082
2026-08-30 12:29:41 REFUELING 19.43%01081
2026-08-30 12:30:01 REFUELING -16.88%101084
2026-08-30 12:30:21 REFUELING -15.70%01083
2026-08-30 12:30:41 REFUELING 26.91%01082
2026-08-30 12:31:01 REFUELING 11.23%01080
2026-08-30 12:31:21 REFUELING -19.66%01080
2026-08-30 12:31:41 REFUELING -16.88%01080
2026-08-30 12:32:01 REFUELING 28.07%21081
2026-08-30 12:32:21 REFUELING -16.93%481083
2026-08-30 12:32:39 TAKE OFF911130
2026-08-30 12:32:41 REFUELING 22.18%921138
2026-08-30 12:32:50 CRUISE761176
2026-08-30 12:33:01 REFUELING -16.91%741213
2026-08-30 12:33:12 STALL681268
2026-08-30 12:33:13 RECOVER FROM STALL671271
2026-08-30 12:33:14 STALL681272
2026-08-30 12:33:17 RECOVER FROM STALL711267
2026-08-30 12:33:18 STALL721267
2026-08-30 12:33:19 RECOVER FROM STALL721270
2026-08-30 12:33:20 STALL711275
2026-08-30 12:33:21 RECOVER FROM STALL711276
2026-08-30 12:33:21 REFUELING -16.60%711279
2026-08-30 12:33:28 STALL701314
2026-08-30 12:33:29 RECOVER FROM STALL691320
2026-08-30 12:33:30 CLIMBING691323
2026-08-30 12:33:33 STALL671345
2026-08-30 12:33:34 RECOVER FROM STALL671348
2026-08-30 12:33:41 REFUELING 24.56%741391
2026-08-30 12:34:01 REFUELING -19.78%861565
2026-08-30 12:34:21 REFUELING 24.63%781764
2026-08-30 12:34:35 STALL701930
2026-08-30 12:34:35 RECOVER FROM STALL691931
2026-08-30 12:34:36 STALL661958
2026-08-30 12:34:41 REFUELING -16.96%562001
2026-08-30 12:34:46 RECOVER FROM STALL531992
2026-08-30 12:34:51 STALL601962
2026-08-30 12:34:52 RECOVER FROM STALL621951
2026-08-30 12:35:01 REFUELING 24.40%731920
2026-08-30 12:35:21 REFUELING -19.77%911974
2026-08-30 12:35:41 REFUELING -16.92%931913
2026-08-30 12:36:01 REFUELING 21.34%1021953
2026-08-30 12:36:21 REFUELING -16.96%1111888
2026-08-30 12:36:40 DESCEND971765
2026-08-30 12:36:41 REFUELING 24.08%971755
2026-08-30 12:37:01 REFUELING -19.69%1051495
2026-08-30 12:37:21 REFUELING 24.00%1071406
2026-08-30 12:37:34 FLAPS SET TO POSITION 2991332
2026-08-30 12:37:41 REFUELING -16.88%911284
2026-08-30 12:37:47 FLAPS SET TO POSITION 3901195
2026-08-30 12:38:01 REFUELING 13.72%691104
2026-08-30 12:38:04 LANDING661083
2026-08-30 12:38:16 FLAPS SET TO POSITION 0251086
2026-08-30 12:38:17 TAXI TO THE GATE201086
2026-08-30 12:38:21 REFUELING 2.80%121087
2026-08-30 12:38:41 REFUELING -16.91%361085
2026-08-30 12:39:01 REFUELING -16.24%181081
2026-08-30 12:39:21 REFUELING 23.13%01082
2026-08-30 12:39:41 REFUELING -19.28%01082
2026-08-30 12:40:01 REFUELING 23.25%01082
2026-08-30 12:40:21 REFUELING -16.89%01082
2026-08-30 12:40:41 REFUELING 23.62%01082
2026-08-30 12:41:01 REFUELING -1.03%01082
2026-08-30 12:41:01 STOPPING ENGINE 1 01082
2026-08-30 12:41:21 REFUELING 3.86%01082
2026-08-30 13:06:01 REFUELING 7.58%01080
2026-08-30 13:06:31 The connection to Flight Sim has been lost01080
2026-08-30 13:09:44 Reconection to the sim01080
2026-08-30 13:09:44 FLAPS SET TO POSITION 101080
2026-08-30 13:09:44 STARTING ENGINE 1 01080
2026-08-30 13:09:46 The connection to Flight Sim has been lost01080
2026-08-30 13:09:48 Reconection to the sim01080
2026-08-30 13:10:08 REFUELING -1.07%01080
 ACARS DATA
DATE IASGSALTITUDEFUEL CONSUMED OATFLIGHT STATUS
2026-08-30 11:58:01001080027BOARDING
2026-08-30 11:59:01001080127BOARDING
2026-08-30 12:00:01001080128BOARDING
2026-08-30 12:01:01001080128BOARDING
2026-08-30 12:02:01001080128BOARDING
2026-08-30 12:03:01001080128BOARDING
2026-08-30 12:04:01001080128BOARDING
2026-08-30 12:05:01001080128BOARDING
2026-08-30 12:06:01001080128BOARDING
2026-08-30 12:07:01001080128BOARDING
2026-08-30 12:08:010010803928BOARDING
2026-08-30 12:09:01959212177527CLIMBING
2026-08-30 12:10:018475204910224CLIMBING
2026-08-30 12:11:019710922354923CLIMBING
2026-08-30 12:12:0112314423867823CLIMBING
2026-08-30 12:13:01116136210513725DESCEND
2026-08-30 12:14:011171201730526CRUISE
2026-08-30 12:15:01898115142227CRUISE
2026-08-30 12:16:01545410855127LANDED
2026-08-30 12:17:015910847129TAXI TO THE GATE
2026-08-30 12:18:0101810834229TAXI TO THE GATE
2026-08-30 12:19:01327108310029TAXI TO THE GATE
2026-08-30 12:20:0101110824229TAXI TO THE GATE
2026-08-30 12:21:010810809930TAXI TO THE GATE
2026-08-30 12:22:018382108512329TAXI TO THE GATE
2026-08-30 12:23:0176731745827CLIMBING
2026-08-30 12:24:01829722935523CLIMBING
2026-08-30 12:25:0110012026249122CRUISE
2026-08-30 12:26:01103123254513022CRUISE
2026-08-30 12:27:0112511716621327DESCEND
2026-08-30 12:28:010010842029TAXI TO THE GATE
2026-08-30 12:29:010410814829TAXI TO THE GATE
2026-08-30 12:30:0193110839729TAXI TO THE GATE
2026-08-30 12:31:010510792029TAXI TO THE GATE
2026-08-30 12:32:012810804929TAXI TO THE GATE
2026-08-30 12:33:01737212128929CRUISE
2026-08-30 12:34:018577156513028CLIMBING
2026-08-30 12:35:01729019202025CLIMBING
2026-08-30 12:36:0110112419527224CLIMBING
2026-08-30 12:37:01104115149511528DESCEND
2026-08-30 12:38:01696711034429DESCEND
2026-08-30 12:39:011823108114829TAXI TO THE GATE
2026-08-30 12:40:0101010825529TAXI TO THE GATE
2026-08-30 12:41:010010813629TAXI TO THE GATE
2026-08-30 12:42:010010792329TAXI TO THE GATE
2026-08-30 12:43:010010792329TAXI TO THE GATE
2026-08-30 12:44:010010792329TAXI TO THE GATE
2026-08-30 12:45:010010792329TAXI TO THE GATE
2026-08-30 12:46:010010792329TAXI TO THE GATE
2026-08-30 12:47:010010792329TAXI TO THE GATE
2026-08-30 12:48:010010792329TAXI TO THE GATE
2026-08-30 12:49:010010792329TAXI TO THE GATE
2026-08-30 12:50:010010792329TAXI TO THE GATE
2026-08-30 12:51:010010792329TAXI TO THE GATE
2026-08-30 12:52:010010792329TAXI TO THE GATE
2026-08-30 12:53:010010792329TAXI TO THE GATE
2026-08-30 12:54:010010792329TAXI TO THE GATE
2026-08-30 12:55:010010792329TAXI TO THE GATE
2026-08-30 12:56:010010792329TAXI TO THE GATE
2026-08-30 12:57:010010792329TAXI TO THE GATE
2026-08-30 12:58:010010792329TAXI TO THE GATE
2026-08-30 12:59:010010792329TAXI TO THE GATE
2026-08-30 13:00:010010792329TAXI TO THE GATE
2026-08-30 13:01:010010792329TAXI TO THE GATE
2026-08-30 13:02:010010792329TAXI TO THE GATE
2026-08-30 13:03:010010792329TAXI TO THE GATE
2026-08-30 13:04:010010792329TAXI TO THE GATE
2026-08-30 13:05:010010792329TAXI TO THE GATE
2026-08-30 13:06:01001079-329TAXI TO THE GATE

Neither the Department of the Air Force, nor any other component of the Department of Defense or Federal Government has approved, endorsed, or authorized this promotion, activity, or organization. Virtual United States Air Force organization is in no way affiliated with the Department of Defense, Department of the Air Force, or any other federal or government entity. Virtual United States Air Force is a group of flight simulation enthusiasts with the common interest of promoting enjoyment and cameraderie through the simulation of military operations and procedures utilizing several flight simulation platforms.

Copyright © vUSAF, LLC // 2018-2026 All Rights Reserved